CSL Niagara — VCGJ — position and weather

sailwx.info

Track history (hours):
 
Tides and Currents Weather Stations Pressure Air Temp Water Temp Dewpoint Dewpoint Depression Visibility Wind Speed Wind Dir Waves Ship Positions

CSL Niagara

ex J. W. McGiffin

Last reported at 2016-Jul-04 07:30 UTC. Time now 2016-Jul-30 22:43 UTC.
Position N 46°18' W 072°34'.
Warning: this ship's position is 26 days out of date.

Length 225 m; draft 8.1 m.

Type: Cargo ship. MMSI: 316029000.

Date/timePositionNaut miles runAvg speedWind from/ knotsBaromVisibWave heightAir tempDewpointWater temp
2016-Jul-04 07:30N 46°18' W 072°34'1010.4
2016-Jul-04 06:33N 46°14' W 072°46'1111.1
2016-Jul-04 05:33N 46°07' W 072°58'1111.1
2016-Jul-04 04:33N 45°60' W 073°11'1211.8
2016-Jul-04 03:33N 45°49' W 073°18'1211.6
2016-Jul-04 02:33N 45°40' W 073°28'9 9.0
2016-Jul-04 01:33N 45°31' W 073°31'2 1.6
2016-Jul-04 00:33N 45°29' W 073°31'4 3.8
2016-Jul-03 23:31N 45°26' W 073°30'3 3.0
2016-Jul-03 22:33N 45°24' W 073°34'3 3.1
2016-Jul-03 21:33N 45°24' W 073°38'6 6.3
2016-Jul-03 20:33N 45°24' W 073°47'6 5.7
2016-Jul-03 19:33N 45°20' W 073°54'2 2.0
2016-Jul-03 18:33N 45°19' W 073°55'1 1.0
2016-Jul-03 17:33N 45°18' W 073°56'2 2.1
2016-Jul-03 16:33N 45°16' W 073°57'9 8.7
2016-Jul-03 15:28N 45°14' W 074°10'247 9.5
2016-Jul-02 13:21N 43°15' W 079°13'2 2.3
2016-Jul-02 12:33N 43°14' W 079°13'0 0.0
2016-Jul-02 11:32N 43°14' W 079°13'0 0.4
2016-Jul-02 10:33N 43°13' W 079°13'1 0.6
2016-Jul-02 09:33N 43°13' W 079°13'  
2016-Jun-30 05:32N 45°56' W 083°52'11 9.4
2016-Jun-30 04:22N 46°05' W 084°01'11 8.5
2016-Jun-30 03:07N 46°13' W 084°10'  
2016-Jun-26 13:30N 45°51' W 084°24'1111.9
2016-Jun-26 12:33N 45°50' W 084°40'1212.0
2016-Jun-26 11:32N 45°50' W 084°57'1212.0
2016-Jun-26 10:33N 45°52' W 085°14'1211.9
2016-Jun-26 09:33N 45°53' W 085°31'1611.2
2016-Jun-26 08:08N 45°50' W 085°54'2311.8
2016-Jun-26 06:09N 45°29' W 086°09'  
Track history (hours):
 
Tides and Currents Weather Stations Pressure Air Temp Water Temp Dewpoint Dewpoint Depression Visibility Wind Speed Wind Dir Waves Ship Positions

CSL Niagara

ex J. W. McGiffin

Last reported at 2016-Jul-04 07:30 UTC. Time now 2016-Jul-30 22:43 UTC.
Position N 46°18' W 072°34'.
Warning: this ship's position is 26 days out of date.

Length 225 m; draft 8.1 m.

Type: Cargo ship. MMSI: 316029000.

Date/timePositionNaut miles runAvg speedWind from/ knotsBaromVisibWave heightAir tempDewpointWater temp
2016-Jul-04 07:30N 46°18' W 072°34'1010.4
2016-Jul-04 06:33N 46°14' W 072°46'1111.1
2016-Jul-04 05:33N 46°07' W 072°58'1111.1
2016-Jul-04 04:33N 45°60' W 073°11'1211.8
2016-Jul-04 03:33N 45°49' W 073°18'1211.6
2016-Jul-04 02:33N 45°40' W 073°28'9 9.0
2016-Jul-04 01:33N 45°31' W 073°31'2 1.6
2016-Jul-04 00:33N 45°29' W 073°31'4 3.8
2016-Jul-03 23:31N 45°26' W 073°30'3 3.0
2016-Jul-03 22:33N 45°24' W 073°34'3 3.1
2016-Jul-03 21:33N 45°24' W 073°38'6 6.3
2016-Jul-03 20:33N 45°24' W 073°47'6 5.7
2016-Jul-03 19:33N 45°20' W 073°54'2 2.0
2016-Jul-03 18:33N 45°19' W 073°55'1 1.0
2016-Jul-03 17:33N 45°18' W 073°56'2 2.1
2016-Jul-03 16:33N 45°16' W 073°57'9 8.7
2016-Jul-03 15:28N 45°14' W 074°10'247 9.5
2016-Jul-02 13:21N 43°15' W 079°13'2 2.3
2016-Jul-02 12:33N 43°14' W 079°13'0 0.0
2016-Jul-02 11:32N 43°14' W 079°13'0 0.4
2016-Jul-02 10:33N 43°13' W 079°13'1 0.6
2016-Jul-02 09:33N 43°13' W 079°13'  
2016-Jun-30 05:32N 45°56' W 083°52'11 9.4
2016-Jun-30 04:22N 46°05' W 084°01'11 8.5
2016-Jun-30 03:07N 46°13' W 084°10'  
2016-Jun-26 13:30N 45°51' W 084°24'1111.9
2016-Jun-26 12:33N 45°50' W 084°40'1212.0
2016-Jun-26 11:32N 45°50' W 084°57'1212.0
2016-Jun-26 10:33N 45°52' W 085°14'1211.9
2016-Jun-26 09:33N 45°53' W 085°31'1611.2
2016-Jun-26 08:08N 45°50' W 085°54'2311.8
2016-Jun-26 06:09N 45°29' W 086°09'  

Dump ship's entire track history